Time;durP1;ratioP1;P1;durP2;ratioP2;P2;SDS_P1;SDS_P2;PMS_P1;PMS_P2;Temp;Humidity;BMP_temperature;BMP_pressure;BME280_temperature;BME280_humidity;BME280_pressure;Samples;Min_cycle;Max_cycle;Signal;HPM_P1;HPM_P2
2022/01/22 00:02:25;;;;;;;4.30;1.65;;;5.70;94.60;;;;;;5021979;28;20064;-83
2022/01/22 00:04:52;;;;;;;5.57;1.75;;;5.70;94.70;;;;;;5038330;28;20049;-82
2022/01/22 00:07:19;;;;;;;3.97;1.58;;;5.80;94.70;;;;;;5005171;28;20045;-83
2022/01/22 00:09:53;;;;;;;5.78;1.35;;;5.80;94.70;;;;;;5005490;28;20531;-83
2022/01/22 00:14:59;;;;;;;3.85;1.40;;;5.80;94.70;;;;;;5055657;28;20064;-83
2022/01/22 00:17:28;;;;;;;5.28;2.00;;;5.80;94.70;;;;;;5021673;28;20059;-83
2022/01/22 00:19:55;;;;;;;8.45;2.20;;;5.80;94.70;;;;;;5021083;28;20052;-83
2022/01/22 00:22:26;;;;;;;3.33;1.10;;;5.80;94.70;;;;;;5004831;28;20055;-82
2022/01/22 00:24:57;;;;;;;7.82;1.77;;;5.80;94.70;;;;;;5037056;28;20048;-82
2022/01/22 00:27:25;;;;;;;5.75;1.38;;;5.80;94.70;;;;;;5005851;28;20409;-82
2022/01/22 00:29:52;;;;;;;4.35;1.08;;;5.80;94.70;;;;;;5021065;28;20066;-82
2022/01/22 00:32:19;;;;;;;2.42;1.17;;;5.90;94.70;;;;;;5021364;28;20044;-82
2022/01/22 00:34:47;;;;;;;4.72;1.13;;;5.90;95.00;;;;;;5021104;28;20566;-83
2022/01/22 00:37:14;;;;;;;2.65;1.00;;;5.90;94.70;;;;;;5021326;28;20072;-83
2022/01/22 00:39:41;;;;;;;5.13;1.40;;;6.00;94.70;;;;;;5005026;28;20053;-83
2022/01/22 00:42:13;;;;;;;2.97;1.05;;;6.00;94.70;;;;;;5020556;28;20057;-83
2022/01/22 00:44:41;;;;;;;4.80;1.92;;;6.00;94.70;;;;;;5036663;28;20496;-83
2022/01/22 00:47:08;;;;;;;4.88;1.25;;;6.00;94.70;;;;;;5004417;28;20676;-83
2022/01/22 00:49:36;;;;;;;2.65;1.20;;;6.00;94.60;;;;;;5021023;28;20447;-82
2022/01/22 00:52:04;;;;;;;1.92;0.68;;;6.00;94.60;;;;;;5004719;28;20502;-81
2022/01/22 00:54:31;;;;;;;2.38;0.90;;;6.00;94.70;;;;;;5004760;28;20041;-83
2022/01/22 00:56:58;;;;;;;1.95;0.95;;;6.00;94.70;;;;;;5037224;28;20045;-82
2022/01/22 00:59:26;;;;;;;4.07;1.27;;;6.00;94.70;;;;;;5037117;28;20095;-81
2022/01/22 01:01:53;;;;;;;4.25;1.50;;;6.00;94.60;;;;;;5020949;28;20044;-83
2022/01/22 01:04:20;;;;;;;7.55;1.77;;;6.00;94.60;;;;;;5004673;28;20479;-82
2022/01/22 01:06:48;;;;;;;7.88;1.95;;;6.00;94.60;;;;;;5020717;28;20443;-82
2022/01/22 01:09:17;;;;;;;3.85;1.73;;;6.00;94.60;;;;;;5004675;28;20386;-82
2022/01/22 01:11:52;;;;;;;3.30;1.33;;;6.00;94.70;;;;;;5021043;28;20045;-81
2022/01/22 01:14:28;;;;;;;8.70;2.05;;;6.00;94.70;;;;;;5020672;28;20048;-80
2022/01/22 01:17:09;;;;;;;6.35;1.90;;;6.00;94.80;;;;;;5005526;28;20087;-81
2022/01/22 01:35:53;;;;;;;3.45;1.40;;;6.00;94.80;;;;;;5020226;28;20037;-83
2022/01/22 01:38:22;;;;;;;4.20;1.42;;;6.00;94.80;;;;;;5020478;28;20045;-83
2022/01/22 01:41:03;;;;;;;2.70;1.58;;;6.10;94.80;;;;;;5020074;28;20136;-81
2022/01/22 01:43:35;;;;;;;4.30;1.38;;;6.10;94.80;;;;;;5020093;28;20056;-80
2022/01/22 01:46:21;;;;;;;5.45;1.75;;;6.10;94.80;;;;;;5040245;28;20051;-83
2022/01/22 01:48:51;;;;;;;5.13;1.65;;;6.00;94.80;;;;;;5036319;28;20090;-81
2022/01/22 01:51:18;;;;;;;4.45;2.05;;;6.00;94.80;;;;;;5019775;28;20132;-83
2022/01/22 01:59:01;;;;;;;3.30;1.83;;;6.00;94.90;;;;;;5036237;28;20566;-83
2022/01/22 02:01:28;;;;;;;5.72;2.38;;;6.00;94.90;;;;;;5019614;28;20129;-83
2022/01/22 02:03:56;;;;;;;5.15;1.70;;;6.00;95.00;;;;;;5003483;28;20049;-83
2022/01/22 02:06:24;;;;;;;3.60;1.33;;;6.00;95.00;;;;;;5020352;28;20053;-81
2022/01/22 02:08:53;;;;;;;3.95;1.60;;;6.00;95.00;;;;;;5019775;28;20107;-81
2022/01/22 02:11:26;;;;;;;3.90;1.67;;;6.00;95.00;;;;;;5004716;28;20127;-83
2022/01/22 02:23:31;;;;;;;6.20;2.03;;;6.00;95.00;;;;;;5021789;28;20041;-83
2022/01/22 02:25:45;;;;;;;4.25;1.33;;;6.00;95.00;;;;;;5021656;28;20063;-81
2022/01/22 02:28:13;;;;;;;5.70;2.20;;;6.10;95.10;;;;;;5003132;28;20103;-80
2022/01/22 02:30:45;;;;;;;4.70;2.22;;;6.10;95.30;;;;;;5018850;28;20092;-83
2022/01/22 02:33:33;;;;;;;5.63;2.13;;;6.10;95.00;;;;;;5021426;28;20412;-84
2022/01/22 02:36:11;;;;;;;2.80;1.33;;;6.20;95.10;;;;;;5020536;28;20048;-84
2022/01/22 02:39:36;;;;;;;4.95;1.75;;;6.20;95.00;;;;;;5004602;28;20036;-84
2022/01/22 02:41:33;;;;;;;6.13;2.30;;;6.20;95.00;;;;;;5027966;28;20065;-84
2022/01/22 02:44:01;;;;;;;5.53;2.25;;;6.20;95.00;;;;;;5019681;28;20036;-84
2022/01/22 02:46:31;;;;;;;7.97;2.88;;;6.20;95.00;;;;;;5003179;28;20045;-84
2022/01/22 02:48:58;;;;;;;4.38;2.05;;;6.20;95.00;;;;;;5019654;28;20151;-81
2022/01/22 02:51:28;;;;;;;6.63;2.20;;;6.20;95.00;;;;;;5019532;28;20083;-81
2022/01/22 02:54:00;;;;;;;7.05;2.33;;;6.20;95.00;;;;;;5019556;28;20041;-81
2022/01/22 02:56:28;;;;;;;5.28;1.88;;;6.20;95.00;;;;;;5019302;28;20444;-82
2022/01/22 02:58:58;;;;;;;6.38;2.13;;;6.20;95.00;;;;;;5019261;28;20048;-82
2022/01/22 03:01:26;;;;;;;8.27;3.00;;;6.20;95.00;;;;;;5019494;28;20131;-81
2022/01/22 03:03:54;;;;;;;4.72;1.52;;;6.30;95.10;;;;;;5018356;28;20504;-82
2022/01/22 03:06:21;;;;;;;6.82;2.33;;;6.20;95.00;;;;;;5018818;28;20060;-81
2022/01/22 03:08:50;;;;;;;5.40;1.80;;;6.30;95.00;;;;;;5018518;28;20048;-81
2022/01/22 03:11:24;;;;;;;3.85;1.90;;;6.30;95.00;;;;;;5018501;28;20103;-81
2022/01/22 03:16:50;;;;;;;3.33;1.65;;;6.30;95.00;;;;;;5020617;28;20041;-84
2022/01/22 03:19:55;;;;;;;2.75;1.27;;;6.30;95.00;;;;;;5018843;28;20041;-84
2022/01/22 03:27:35;;;;;;;3.03;1.27;;;6.40;95.00;;;;;;5021199;28;20091;-81
2022/01/22 03:30:04;;;;;;;5.80;2.03;;;6.40;95.00;;;;;;5018654;28;20041;-81
2022/01/22 03:32:39;;;;;;;9.95;2.53;;;6.40;95.00;;;;;;5018991;28;20465;-81
2022/01/22 03:37:39;;;;;;;6.38;1.92;;;6.40;95.00;;;;;;5003245;28;20041;-82
2022/01/22 03:40:12;;;;;;;6.00;2.22;;;6.40;95.00;;;;;;5018318;28;20424;-82
2022/01/22 03:42:41;;;;;;;4.57;2.08;;;6.40;95.00;;;;;;5034821;28;20099;-82
2022/01/22 03:45:11;;;;;;;5.88;1.98;;;6.40;95.00;;;;;;5018294;28;20045;-81
2022/01/22 03:47:40;;;;;;;4.68;1.83;;;6.40;95.00;;;;;;5018572;28;20045;-81
2022/01/22 03:50:09;;;;;;;4.07;1.88;;;6.40;95.00;;;;;;5018077;28;20049;-81
2022/01/22 03:52:36;;;;;;;5.63;2.10;;;6.50;95.00;;;;;;5018054;28;20044;-82
2022/01/22 03:55:08;;;;;;;4.30;1.70;;;6.50;95.00;;;;;;5002078;28;20049;-82
2022/01/22 03:58:04;;;;;;;4.75;1.60;;;6.50;95.00;;;;;;4981039;28;20066;-81
2022/01/22 04:00:34;;;;;;;4.45;1.92;;;6.50;95.00;;;;;;5002894;28;20048;-82
2022/01/22 04:08:52;;;;;;;3.63;1.85;;;6.50;95.00;;;;;;5030648;28;20135;-82
2022/01/22 04:11:20;;;;;;;4.20;1.65;;;6.40;95.00;;;;;;5002808;28;20128;-82
2022/01/22 04:13:50;;;;;;;3.22;1.10;;;6.50;95.10;;;;;;5034503;28;20072;-82
2022/01/22 04:16:18;;;;;;;2.92;1.23;;;6.50;95.10;;;;;;5034796;28;20439;-82
2022/01/22 04:27:20;;;;;;;3.97;1.40;;;6.60;95.00;;;;;;5024161;28;20060;-82
2022/01/22 04:29:47;;;;;;;5.05;1.63;;;6.60;95.00;;;;;;5021502;28;20454;-82
2022/01/22 04:32:15;;;;;;;2.60;1.35;;;6.60;95.00;;;;;;5037842;28;20103;-82
2022/01/22 04:34:42;;;;;;;3.10;1.15;;;6.60;95.00;;;;;;5038061;28;20040;-81
2022/01/22 04:37:11;;;;;;;4.40;1.05;;;6.60;95.00;;;;;;5021470;28;20053;-82
2022/01/22 04:39:38;;;;;;;3.97;1.15;;;6.60;95.00;;;;;;5021605;28;20136;-82
2022/01/22 04:42:06;;;;;;;5.15;1.52;;;6.60;95.00;;;;;;5021410;28;20079;-82
2022/01/22 04:44:39;;;;;;;3.03;1.17;;;6.60;95.00;;;;;;5005466;28;20049;-82
2022/01/22 04:55:13;;;;;;;7.88;1.38;;;6.60;95.00;;;;;;4977509;28;20418;-82
2022/01/22 04:57:46;;;;;;;2.47;1.10;;;6.60;95.00;;;;;;5013443;28;20132;-82
2022/01/22 05:00:16;;;;;;;4.25;1.10;;;6.60;95.00;;;;;;5037186;28;20037;-82
2022/01/22 05:03:03;;;;;;;2.50;0.85;;;6.60;95.00;;;;;;5013491;28;20056;-82
2022/01/22 05:05:43;;;;;;;2.88;0.82;;;6.60;95.00;;;;;;5022694;28;20055;-82
2022/01/22 05:08:45;;;;;;;5.57;1.63;;;6.60;95.00;;;;;;5016907;28;20505;-82
2022/01/22 05:11:17;;;;;;;2.80;1.20;;;6.60;95.00;;;;;;5007448;28;20052;-81
2022/01/22 05:13:47;;;;;;;3.50;1.25;;;6.60;95.10;;;;;;5031463;28;20063;-82
2022/01/22 05:16:15;;;;;;;3.28;0.82;;;6.60;95.10;;;;;;5033619;28;20079;-82
2022/01/22 05:18:52;;;;;;;2.58;0.90;;;6.60;95.10;;;;;;5027712;28;20496;-82
2022/01/22 05:21:22;;;;;;;2.20;0.80;;;6.60;95.10;;;;;;5036740;28;20084;-82
2022/01/22 05:23:51;;;;;;;2.00;0.75;;;6.60;95.10;;;;;;5020788;28;20467;-82
2022/01/22 05:29:16;;;;;;;1.73;0.45;;;6.60;95.10;;;;;;5007522;28;20041;-81
2022/01/22 05:37:48;;;;;;;2.78;0.70;;;6.70;95.00;;;;;;5036236;28;20053;-82
2022/01/22 05:40:17;;;;;;;3.95;0.60;;;6.70;95.00;;;;;;5020303;28;20041;-82
2022/01/22 05:42:44;;;;;;;2.63;0.95;;;6.70;95.00;;;;;;5036813;28;20032;-81
2022/01/22 05:45:11;;;;;;;2.55;0.50;;;6.70;95.00;;;;;;5020107;28;20056;-81
2022/01/22 05:47:38;;;;;;;2.60;0.77;;;6.70;95.00;;;;;;5052525;28;20133;-82
2022/01/22 05:50:12;;;;;;;1.20;0.40;;;6.70;95.00;;;;;;5036643;28;20489;-82
2022/01/22 05:52:53;;;;;;;0.98;0.50;;;6.70;95.10;;;;;;5021056;28;20053;-82
2022/01/22 06:00:57;;;;;;;3.17;0.70;;;6.70;95.40;;;;;;5026506;28;20071;-82
2022/01/22 06:03:45;;;;;;;3.33;0.55;;;6.70;95.10;;;;;;5025789;28;20051;-82
2022/01/22 06:06:13;;;;;;;2.13;0.80;;;6.70;95.10;;;;;;5019874;28;20045;-82
2022/01/22 06:08:47;;;;;;;2.90;0.50;;;6.70;95.10;;;;;;5020062;28;20099;-81
2022/01/22 06:11:22;;;;;;;2.25;0.40;;;6.80;95.10;;;;;;5020882;28;20048;-82
2022/01/22 06:13:50;;;;;;;2.85;0.60;;;6.70;95.00;;;;;;5020656;28;20051;-82
2022/01/22 06:16:28;;;;;;;1.20;0.50;;;6.70;95.00;;;;;;5021169;28;20037;-82
2022/01/22 06:19:21;;;;;;;1.00;0.50;;;6.70;95.00;;;;;;5036907;28;20120;-82
2022/01/22 06:21:51;;;;;;;1.50;0.40;;;6.80;95.10;;;;;;5019686;28;20095;-83
2022/01/22 06:24:22;;;;;;;1.42;0.40;;;6.80;95.10;;;;;;5005125;28;20412;-82
2022/01/22 06:26:50;;;;;;;2.65;0.40;;;6.70;95.00;;;;;;5003355;28;20591;-82
2022/01/22 06:29:18;;;;;;;1.58;0.40;;;6.80;95.00;;;;;;5035895;28;20564;-82
2022/01/22 06:31:46;;;;;;;1.42;0.50;;;6.70;95.00;;;;;;5019550;28;20037;-82
2022/01/22 06:34:13;;;;;;;2.38;0.50;;;6.70;95.00;;;;;;5052230;28;20037;-82
2022/01/22 06:36:41;;;;;;;2.05;0.90;;;6.70;95.10;;;;;;5019512;28;20501;-82
2022/01/22 06:39:15;;;;;;;4.40;0.82;;;6.80;95.10;;;;;;5019332;28;20041;-81
2022/01/22 06:41:50;;;;;;;1.05;0.50;;;6.80;95.10;;;;;;5022982;28;20041;-82
2022/01/22 06:44:25;;;;;;;2.47;0.57;;;6.80;95.10;;;;;;5021545;28;20096;-83
2022/01/22 06:47:06;;;;;;;3.13;0.60;;;6.80;95.10;;;;;;5035686;28;20053;-82
2022/01/22 06:50:04;;;;;;;2.20;0.60;;;6.80;95.10;;;;;;5023759;28;20114;-87
2022/01/22 06:52:55;;;;;;;1.52;0.50;;;6.80;95.10;;;;;;5038756;28;20944;-83
2022/01/22 06:55:56;;;;;;;1.13;0.60;;;6.80;95.10;;;;;;5007414;28;20409;-83
2022/01/22 06:58:25;;;;;;;2.42;0.90;;;6.80;95.30;;;;;;5022228;28;20554;-85
2022/01/22 07:01:00;;;;;;;4.55;0.95;;;6.80;95.10;;;;;;5005656;28;20052;-87
2022/01/22 07:03:34;;;;;;;4.00;1.00;;;6.80;95.10;;;;;;5020501;28;20469;-86
2022/01/22 07:06:22;;;;;;;1.90;0.75;;;6.80;95.10;;;;;;5008753;28;20074;-85
2022/01/22 07:08:49;;;;;;;2.22;0.90;;;6.80;95.20;;;;;;5019850;28;20049;-86
2022/01/22 07:11:21;;;;;;;3.08;1.00;;;6.80;95.20;;;;;;5004038;28;20068;-87
2022/01/22 07:13:49;;;;;;;3.03;1.00;;;6.80;95.20;;;;;;5019572;28;20045;-87
2022/01/22 07:16:17;;;;;;;3.47;1.20;;;6.80;95.20;;;;;;5019810;28;20043;-86
2022/01/22 07:18:54;;;;;;;2.65;1.20;;;6.80;95.20;;;;;;5020607;28;20141;-87
2022/01/22 07:21:30;;;;;;;2.70;1.30;;;6.80;95.30;;;;;;5021084;28;20563;-86
2022/01/22 07:26:31;;;;;;;4.15;1.52;;;6.80;95.30;;;;;;5019300;28;20148;-86
2022/01/22 07:29:05;;;;;;;3.50;1.65;;;6.80;95.30;;;;;;5020475;28;20504;-86
2022/01/22 07:31:36;;;;;;;2.70;1.08;;;6.80;95.30;;;;;;5004275;28;20051;-87
2022/01/22 07:34:04;;;;;;;3.33;1.00;;;6.80;95.60;;;;;;5019403;28;20041;-85
2022/01/22 07:36:33;;;;;;;4.40;1.60;;;6.80;95.30;;;;;;5019751;28;20041;-86
2022/01/22 07:39:01;;;;;;;3.50;1.52;;;6.80;95.30;;;;;;5019258;28;20080;-86
2022/01/22 07:41:30;;;;;;;2.38;0.90;;;6.80;95.30;;;;;;5019309;28;20049;-85
2022/01/22 07:44:20;;;;;;;4.60;1.10;;;6.90;95.30;;;;;;4998274;28;20061;-86
2022/01/22 07:46:49;;;;;;;3.33;0.98;;;6.90;95.30;;;;;;5019379;28;20099;-84
2022/01/22 07:49:25;;;;;;;3.22;0.88;;;6.90;95.30;;;;;;5004125;28;20052;-81
2022/01/22 07:51:59;;;;;;;3.10;1.00;;;6.90;95.30;;;;;;5029149;28;20060;-82
2022/01/22 07:54:26;;;;;;;3.15;0.90;;;6.90;95.30;;;;;;5038955;28;20132;-84
2022/01/22 07:56:56;;;;;;;2.25;0.90;;;6.90;95.30;;;;;;5025594;28;20044;-84
2022/01/22 07:59:23;;;;;;;4.85;0.75;;;6.90;95.30;;;;;;5024927;28;20048;-81
2022/01/22 08:01:51;;;;;;;2.08;0.70;;;6.90;95.30;;;;;;5025473;28;20041;-82
2022/01/22 08:04:23;;;;;;;1.83;0.70;;;7.00;95.30;;;;;;5041788;28;20040;-84
2022/01/22 08:07:09;;;;;;;1.67;0.63;;;7.00;95.40;;;;;;5039099;28;20526;-81
2022/01/22 08:09:57;;;;;;;1.25;0.40;;;7.00;95.30;;;;;;5081162;28;20082;-82
2022/01/22 08:12:32;;;;;;;1.98;0.95;;;7.00;95.30;;;;;;5029401;28;20041;-82
2022/01/22 08:15:11;;;;;;;2.13;0.55;;;7.00;95.30;;;;;;5027249;28;20094;-82
2022/01/22 08:17:38;;;;;;;9.45;1.00;;;7.00;95.30;;;;;;5041122;28;20056;-82
2022/01/22 08:20:07;;;;;;;3.35;0.57;;;7.00;95.30;;;;;;5032026;28;20484;-82
2022/01/22 08:22:50;;;;;;;1.83;0.50;;;7.00;95.30;;;;;;5065548;28;20400;-82
2022/01/22 08:25:38;;;;;;;1.55;0.50;;;7.00;95.30;;;;;;5080962;28;20058;-82
2022/01/22 08:31:16;;;;;;;1.50;0.50;;;7.10;95.40;;;;;;5077865;28;20048;-81
2022/01/22 08:36:29;;;;;;;2.70;1.10;;;7.10;95.50;;;;;;5063629;28;19973;-79
2022/01/22 08:38:57;;;;;;;1.10;0.47;;;7.10;95.30;;;;;;5028297;28;20047;-79
2022/01/22 08:41:26;;;;;;;2.50;0.70;;;7.20;95.30;;;;;;5045055;28;20055;-76
2022/01/22 08:43:58;;;;;;;3.25;0.65;;;7.20;95.20;;;;;;5028030;28;20445;-77
2022/01/22 08:46:25;;;;;;;2.50;0.50;;;7.20;95.20;;;;;;5060975;28;20067;-77
2022/01/22 08:48:53;;;;;;;5.90;0.95;;;7.30;95.20;;;;;;5060544;28;20040;-77
2022/01/22 08:51:22;;;;;;;2.65;0.75;;;7.30;95.20;;;;;;5060898;28;20492;-77
2022/01/22 08:53:51;;;;;;;1.70;0.63;;;7.30;95.10;;;;;;5059417;28;20051;-77
2022/01/22 08:56:19;;;;;;;2.80;0.63;;;7.30;95.20;;;;;;5044046;28;20417;-77
2022/01/22 08:58:47;;;;;;;2.30;0.68;;;7.30;95.20;;;;;;5044108;28;20602;-77
2022/01/22 09:01:28;;;;;;;2.90;1.08;;;7.30;95.10;;;;;;5062358;28;20040;-78
2022/01/22 09:04:00;;;;;;;2.95;0.65;;;7.30;95.10;;;;;;5029739;28;20447;-77
2022/01/22 09:06:41;;;;;;;2.42;0.50;;;7.30;95.10;;;;;;5076650;28;20459;-77
2022/01/22 09:09:37;;;;;;;2.33;0.65;;;7.30;95.10;;;;;;5071854;28;20533;-83
2022/01/22 09:12:40;;;;;;;2.72;0.65;;;7.30;95.10;;;;;;5070898;28;20036;-83
2022/01/22 09:15:22;;;;;;;2.58;0.80;;;7.30;95.10;;;;;;5048540;28;20067;-84
2022/01/22 09:17:51;;;;;;;2.20;0.70;;;7.30;95.10;;;;;;5045069;28;20111;-85
2022/01/22 09:23:07;;;;;;;4.30;2.13;;;7.40;95.10;;;;;;5063678;28;20048;-84
2022/01/22 09:25:35;;;;;;;1.30;0.57;;;7.40;95.10;;;;;;5044300;28;20470;-84
2022/01/22 09:28:04;;;;;;;2.58;0.57;;;7.40;95.00;;;;;;5044049;28;20499;-83
2022/01/22 09:30:34;;;;;;;1.33;0.70;;;7.40;95.00;;;;;;5060846;28;20052;-84
2022/01/22 09:33:02;;;;;;;1.70;0.45;;;7.40;95.00;;;;;;5028248;28;20048;-83
2022/01/22 09:35:49;;;;;;;2.40;0.65;;;7.40;95.00;;;;;;5049425;28;20051;-83
2022/01/22 09:38:28;;;;;;;2.83;0.60;;;7.40;95.00;;;;;;5079114;28;20044;-84
2022/01/22 09:41:17;;;;;;;2.38;0.73;;;7.40;94.90;;;;;;5059630;28;20461;-84
2022/01/22 09:44:02;;;;;;;4.15;0.60;;;7.50;94.90;;;;;;5051922;28;20040;-83
2022/01/22 09:46:29;;;;;;;3.35;0.95;;;7.50;94.90;;;;;;5094523;28;20052;-82
2022/01/22 09:49:09;;;;;;;2.88;0.60;;;7.50;94.90;;;;;;5046566;28;20434;-81
2022/01/22 09:51:53;;;;;;;1.52;0.55;;;7.40;94.90;;;;;;5047794;28;20047;-81
2022/01/22 09:54:53;;;;;;;1.73;0.40;;;7.50;94.90;;;;;;5051869;28;20044;-83
2022/01/22 09:57:38;;;;;;;2.83;0.63;;;7.50;94.90;;;;;;5094623;28;20121;-82
2022/01/22 10:00:25;;;;;;;1.27;0.50;;;7.50;94.90;;;;;;5079691;28;20621;-84
2022/01/22 10:02:58;;;;;;;2.42;0.40;;;7.50;94.90;;;;;;5076282;28;20138;-83
2022/01/22 10:05:40;;;;;;;3.15;0.70;;;7.50;94.90;;;;;;5047735;28;20052;-84
2022/01/22 10:08:35;;;;;;;1.48;0.50;;;7.50;94.90;;;;;;5079203;28;20407;-83
2022/01/22 10:11:29;;;;;;;2.50;0.70;;;7.60;94.90;;;;;;5064288;28;20514;-83
2022/01/22 10:14:14;;;;;;;3.22;0.55;;;7.60;94.90;;;;;;5065026;28;20048;-84
2022/01/22 10:16:48;;;;;;;5.07;1.17;;;7.60;94.90;;;;;;5043269;28;20147;-84
2022/01/22 10:19:19;;;;;;;3.38;1.10;;;7.60;95.10;;;;;;5059497;28;20036;-83
2022/01/22 10:21:57;;;;;;;4.00;1.17;;;7.60;94.80;;;;;;5075921;28;20040;-83
2022/01/22 10:24:46;;;;;;;4.85;1.17;;;7.60;94.80;;;;;;5076115;28;20514;-83
2022/01/22 10:30:14;;;;;;;5.30;1.40;;;7.60;94.70;;;;;;5059038;28;20064;-83
2022/01/22 10:35:31;;;;;;;3.42;1.45;;;7.60;94.70;;;;;;5093628;28;20148;-82
2022/01/22 10:38:52;;;;;;;2.97;0.90;;;7.60;94.80;;;;;;5080919;28;20061;-83
2022/01/22 10:41:36;;;;;;;2.80;1.00;;;7.50;94.70;;;;;;5075671;28;20050;-83
2022/01/22 10:44:04;;;;;;;3.88;1.52;;;7.50;94.80;;;;;;5059222;28;20051;-83
2022/01/22 10:49:13;;;;;;;3.45;1.00;;;7.50;94.80;;;;;;5055695;28;20488;-84
2022/01/22 10:51:47;;;;;;;3.17;1.10;;;7.50;94.80;;;;;;5055542;28;20048;-83
2022/01/22 10:54:21;;;;;;;3.83;1.40;;;7.50;94.80;;;;;;5056008;28;20072;-84
2022/01/22 10:56:49;;;;;;;3.50;1.30;;;7.50;94.70;;;;;;5038559;28;20550;-83
2022/01/22 10:59:19;;;;;;;2.58;1.10;;;7.50;94.80;;;;;;5038941;28;20055;-83
2022/01/22 11:01:46;;;;;;;3.08;1.27;;;7.50;94.70;;;;;;5038797;28;20082;-83
2022/01/22 11:04:16;;;;;;;4.78;1.10;;;7.50;94.80;;;;;;5039259;28;20078;-83
2022/01/22 11:06:50;;;;;;;2.75;0.85;;;7.50;94.70;;;;;;5039033;28;20059;-84
2022/01/22 11:09:37;;;;;;;2.50;0.70;;;7.60;94.70;;;;;;5055720;28;20036;-84
2022/01/22 11:12:06;;;;;;;4.43;1.17;;;7.60;94.70;;;;;;5006431;28;20071;-83
2022/01/22 11:14:34;;;;;;;5.85;1.50;;;7.70;94.70;;;;;;5038978;28;20049;-83
2022/01/22 11:17:02;;;;;;;3.28;1.23;;;7.70;94.70;;;;;;5038761;28;20798;-83
2022/01/22 11:19:32;;;;;;;2.08;0.98;;;7.70;94.60;;;;;;5022739;28;20044;-84
2022/01/22 11:22:26;;;;;;;4.10;1.10;;;7.80;94.60;;;;;;5022467;28;20049;-83
2022/01/22 11:24:56;;;;;;;3.83;0.82;;;7.80;94.50;;;;;;5035749;28;20143;-83
2022/01/22 11:27:23;;;;;;;2.03;0.90;;;7.80;94.60;;;;;;5038661;28;20064;-83
2022/01/22 11:29:57;;;;;;;1.63;0.90;;;7.80;94.60;;;;;;5007790;28;20528;-82
2022/01/22 11:32:33;;;;;;;1.52;0.70;;;7.80;94.60;;;;;;5059502;28;20044;-84
2022/01/22 11:35:05;;;;;;;3.67;1.00;;;7.80;94.50;;;;;;5042623;28;20446;-83
2022/01/22 11:37:47;;;;;;;1.65;0.80;;;7.80;94.50;;;;;;5059148;28;20499;-83
2022/01/22 11:40:21;;;;;;;1.80;0.60;;;7.80;94.50;;;;;;5042133;28;20113;-82
2022/01/22 11:43:07;;;;;;;2.47;0.70;;;7.80;94.60;;;;;;5058774;28;20067;-82
2022/01/22 11:45:46;;;;;;;2.30;0.70;;;7.80;94.60;;;;;;5058847;28;20037;-82
2022/01/22 11:48:31;;;;;;;2.80;0.70;;;7.80;94.50;;;;;;5058864;28;20201;-82
2022/01/22 11:51:21;;;;;;;2.70;0.93;;;7.80;94.40;;;;;;5042588;28;20443;-82
2022/01/22 11:53:59;;;;;;;2.75;0.82;;;7.80;94.40;;;;;;5058307;28;20563;-82
2022/01/22 11:56:48;;;;;;;2.53;0.95;;;7.80;94.40;;;;;;5041769;28;20782;-82
2022/01/22 11:59:18;;;;;;;3.88;0.90;;;7.80;94.40;;;;;;5041847;28;20040;-82
2022/01/22 12:01:52;;;;;;;1.65;0.77;;;7.80;94.40;;;;;;5058121;28;20045;-81
2022/01/22 12:04:22;;;;;;;2.38;0.63;;;7.80;94.40;;;;;;5058379;28;20045;-81
2022/01/22 12:07:04;;;;;;;2.08;0.90;;;7.90;94.40;;;;;;5041523;28;20139;-81
2022/01/22 12:09:31;;;;;;;2.92;1.30;;;7.90;94.20;;;;;;5041762;28;20181;-82
2022/01/22 12:15:12;;;;;;;3.20;1.10;;;7.90;94.20;;;;;;5057997;28;20043;-81
2022/01/22 12:17:55;;;;;;;3.08;0.80;;;7.90;94.20;;;;;;5041659;28;20053;-84
2022/01/22 12:23:05;;;;;;;2.80;0.77;;;8.00;94.10;;;;;;5057608;28;20040;-83
2022/01/22 12:25:47;;;;;;;2.20;0.80;;;8.00;94.10;;;;;;5075828;28;20466;-81
2022/01/22 12:28:42;;;;;;;1.15;0.50;;;8.00;94.10;;;;;;5041012;28;20816;-82
2022/01/22 12:31:14;;;;;;;2.17;0.57;;;8.00;94.10;;;;;;5041117;28;20106;-83
2022/01/22 12:33:55;;;;;;;4.75;0.70;;;8.10;94.10;;;;;;5057633;28;20041;-82
2022/01/22 12:36:36;;;;;;;3.05;0.65;;;8.10;94.10;;;;;;5041093;28;20037;-81
2022/01/22 12:39:12;;;;;;;1.42;0.60;;;8.10;94.00;;;;;;5075681;28;20032;-83
2022/01/22 12:44:33;;;;;;;2.38;0.70;;;8.10;94.00;;;;;;5041066;28;20041;-81
2022/01/22 12:47:11;;;;;;;2.40;1.05;;;8.10;93.90;;;;;;5041138;28;20143;-82
2022/01/22 12:52:48;;;;;;;2.22;0.90;;;8.10;93.80;;;;;;5075307;28;20427;-81
2022/01/22 12:55:23;;;;;;;1.80;0.80;;;8.20;93.80;;;;;;5057370;28;20470;-82
2022/01/22 12:57:57;;;;;;;1.73;0.50;;;8.10;93.80;;;;;;5058555;28;20044;-81
2022/01/22 13:00:24;;;;;;;2.22;0.55;;;8.10;93.80;;;;;;5040972;28;20036;-81
2022/01/22 13:02:57;;;;;;;3.65;0.85;;;8.20;93.80;;;;;;5037489;28;20055;-80
2022/01/22 13:05:28;;;;;;;0.98;0.50;;;8.20;93.80;;;;;;5054966;28;20044;-80
2022/01/22 13:08:00;;;;;;;1.50;0.60;;;8.20;93.80;;;;;;5055065;28;20436;-82
2022/01/22 13:10:47;;;;;;;2.85;0.88;;;8.20;94.00;;;;;;5055263;28;20134;-81
2022/01/22 13:13:18;;;;;;;1.77;0.60;;;8.20;93.80;;;;;;5051379;28;20044;-79
2022/01/22 13:15:45;;;;;;;1.20;0.55;;;8.20;93.80;;;;;;5033443;28;20481;-77
2022/01/22 13:18:12;;;;;;;2.42;0.95;;;8.20;94.00;;;;;;5024162;28;20051;-77
2022/01/22 13:20:41;;;;;;;3.10;1.10;;;8.20;93.60;;;;;;5040243;28;20087;-79
2022/01/22 13:23:14;;;;;;;2.13;0.90;;;8.20;93.60;;;;;;5057313;28;20552;-80
2022/01/22 13:25:41;;;;;;;2.28;0.73;;;8.20;93.60;;;;;;5056894;28;20055;-80
2022/01/22 13:28:11;;;;;;;2.42;0.80;;;8.20;93.60;;;;;;5039892;28;20090;-79
2022/01/22 13:30:48;;;;;;;1.70;1.08;;;8.20;93.60;;;;;;5008059;28;20049;-79
2022/01/22 13:33:27;;;;;;;3.97;1.40;;;8.20;93.60;;;;;;5055975;28;20114;-79
2022/01/22 13:49:43;;;;;;;5.00;1.67;;;8.10;93.60;;;;;;5059983;28;20106;-80
2022/01/22 13:52:15;;;;;;;3.92;2.25;;;8.10;93.50;;;;;;5055586;28;20047;-80
2022/01/22 13:54:52;;;;;;;4.80;2.42;;;8.10;93.50;;;;;;5039565;28;20412;-81
2022/01/22 13:57:22;;;;;;;7.68;3.10;;;8.10;93.50;;;;;;5039451;28;20055;-78
2022/01/22 13:59:53;;;;;;;6.97;3.03;;;8.00;93.50;;;;;;5074156;28;20099;-78
2022/01/22 14:04:49;;;;;;;6.03;3.55;;;8.00;93.50;;;;;;5073889;28;20119;-78
2022/01/22 14:07:33;;;;;;;7.88;3.70;;;8.00;93.50;;;;;;5074013;28;20447;-79
2022/01/22 14:10:02;;;;;;;7.25;3.35;;;8.00;93.50;;;;;;5039525;28;20393;-80
2022/01/22 14:12:53;;;;;;;5.82;3.58;;;8.00;93.50;;;;;;5055693;28;20387;-79
2022/01/22 14:15:28;;;;;;;6.55;3.08;;;8.10;93.50;;;;;;5039381;28;20044;-79
2022/01/22 14:20:52;;;;;;;6.97;4.50;;;8.10;93.50;;;;;;5055512;28;20405;-79
2022/01/22 14:26:34;;;;;;;8.38;3.10;;;8.10;93.50;;;;;;5055257;28;20048;-82
2022/01/22 14:29:10;;;;;;;7.20;3.30;;;8.00;93.50;;;;;;5052062;28;20071;-82
2022/01/22 14:31:59;;;;;;;6.28;3.63;;;8.00;93.50;;;;;;5035818;28;20132;-80
2022/01/22 14:34:30;;;;;;;7.85;4.38;;;8.00;93.50;;;;;;5051937;28;20083;-79
2022/01/22 14:36:59;;;;;;;8.80;4.10;;;8.00;93.50;;;;;;5050948;28;20139;-79
2022/01/22 14:45:33;;;;;;;7.53;3.55;;;8.00;93.50;;;;;;5048701;28;20045;-78
2022/01/22 14:48:04;;;;;;;6.88;3.08;;;8.00;93.50;;;;;;5031903;28;20486;-77
2022/01/22 14:50:32;;;;;;;8.38;3.33;;;8.00;93.50;;;;;;5033202;28;20038;-81
2022/01/22 14:53:01;;;;;;;6.75;3.15;;;8.00;93.50;;;;;;4999574;28;20049;-82
2022/01/22 14:55:28;;;;;;;6.53;3.28;;;8.00;93.60;;;;;;5015589;28;20531;-82
2022/01/22 14:57:57;;;;;;;7.95;3.70;;;8.00;93.60;;;;;;4999461;28;20045;-77
2022/01/22 15:00:24;;;;;;;6.30;3.60;;;8.00;93.50;;;;;;5015512;28;20095;-78
2022/01/22 15:02:51;;;;;;;7.55;3.70;;;8.00;93.60;;;;;;5014950;28;20046;-78
2022/01/22 15:05:19;;;;;;;4.40;2.53;;;8.00;93.50;;;;;;5016291;28;20070;-78
2022/01/22 15:07:47;;;;;;;5.13;3.03;;;8.00;93.60;;;;;;5035241;28;20087;-77
2022/01/22 15:10:22;;;;;;;5.95;3.05;;;8.00;93.60;;;;;;5035052;28;20041;-78
2022/01/22 15:12:49;;;;;;;5.88;2.60;;;8.00;93.60;;;;;;5034028;28;20068;-78
2022/01/22 15:15:40;;;;;;;7.03;3.53;;;8.00;93.60;;;;;;5036082;28;20049;-78
2022/01/22 15:18:14;;;;;;;9.65;3.42;;;8.00;93.60;;;;;;5035782;28;20136;-78
2022/01/22 15:20:42;;;;;;;4.63;2.53;;;8.00;93.60;;;;;;5034557;28;20059;-77
2022/01/22 15:23:09;;;;;;;6.20;3.33;;;8.00;93.60;;;;;;5034945;28;20041;-78
2022/01/22 15:25:36;;;;;;;5.05;2.65;;;8.00;93.60;;;;;;5034510;28;20064;-79
2022/01/22 15:28:03;;;;;;;4.22;2.42;;;8.00;93.60;;;;;;5019032;28;20053;-79
2022/01/22 15:30:36;;;;;;;4.28;2.20;;;7.90;93.70;;;;;;5037932;28;20059;-77
2022/01/22 15:33:20;;;;;;;3.53;1.65;;;8.00;93.70;;;;;;5037772;28;20137;-79
2022/01/22 15:35:47;;;;;;;6.45;2.13;;;8.00;93.70;;;;;;5038392;28;20040;-78
2022/01/22 15:38:16;;;;;;;5.35;2.65;;;8.00;93.70;;;;;;5038570;28;20116;-78
2022/01/22 15:40:45;;;;;;;6.10;2.53;;;8.00;93.70;;;;;;5037981;28;20052;-78
2022/01/22 15:43:12;;;;;;;6.55;2.80;;;8.00;93.70;;;;;;5021917;28;20072;-77
2022/01/22 15:45:39;;;;;;;5.50;3.17;;;8.00;93.60;;;;;;5021721;28;20044;-78
2022/01/22 15:48:06;;;;;;;5.00;3.03;;;7.90;93.60;;;;;;5037946;28;20051;-78
2022/01/22 15:50:34;;;;;;;4.55;2.92;;;8.00;93.60;;;;;;5037480;28;20082;-76
2022/01/22 15:53:12;;;;;;;4.43;2.25;;;8.00;93.70;;;;;;5038829;28;20094;-77